Decoded Metar for KNBC (BEAUFORT in SC, USA) (IATA:NBC) | Meteo·Mobile Aviation Weather
aviador You're here:

KNBC Decoded Metar

BEAUFORT in SC, USA
Report Time2019-02-17 06:56:00
UTC Time2019-02-17 07:19:57
Flight Rules mvfr MVFR
Wind040° at 06 kt
W.Decomp.*RWY 05: 6.0 kt HW 0.5 kt LCW
RWY 36: 4.2 kt HW 4.2 kt RCW
RWY 32: 0.5 kt HW 6.0 kt RCW
W.Rank040° ranks 5
Current wind is below 040° avg. (7.1)
Visibility9999 m
Phenomena:N/A
Clouds:Overcast 012 Hf
Expected CloudBase > 400 ft AGL from Temp-Dew spread
Ceiling1,200 ft
Temp12°C (ISA -3)
Dew Point11°C (94% RH)
AAT10.2°C
QNH1013 hPa
Density Alt-135 ft
Elevation37 ft
Report Wrong Elevation
Raw Report
KNBC 170656Z AUTO 04006KT 10SM OVC012 12/11 A2992 RMK AO2 SLP133
T01220106 $=

Extra information for KNBC:More info

Metar Taf Metar & Taf Last 4 Metars F.Rules Stats Wind Profile Meteogram Temp Stats Airport Information Weather charts Add Link Nearby VenuesMetar ALERT Operation Metar Decoded Social comments

AIRNAV info for KNBC